createdAt,value
2023-05-12T00:02:05.484Z,47.56
2023-05-12T00:04:33.034Z,48.02
2023-05-12T00:07:00.201Z,47.76
2023-05-12T00:09:27.700Z,47.66
2023-05-12T00:11:55.007Z,47.69
2023-05-12T00:14:22.193Z,47.89
2023-05-12T00:16:51.896Z,47.65
2023-05-12T00:19:20.389Z,47.63
2023-05-12T00:21:47.892Z,47.68
2023-05-12T00:24:15.553Z,47.66
2023-05-12T00:26:42.478Z,47.75
2023-05-12T00:29:10.143Z,47.92
2023-05-12T00:31:37.088Z,47.92
2023-05-12T00:34:04.421Z,47.64
2023-05-12T00:36:32.004Z,48.16
2023-05-12T00:38:59.547Z,47.98
2023-05-12T00:41:26.885Z,48.19
2023-05-12T00:43:54.687Z,48.11
2023-05-12T00:46:22.011Z,48.06
2023-05-12T00:48:50.329Z,47.96
2023-05-12T00:51:17.645Z,48.04
2023-05-12T00:53:49.709Z,48.21
2023-05-12T00:56:19.070Z,48.12
2023-05-12T00:58:47.158Z,48.18
2023-05-12T01:01:16.081Z,48.65
2023-05-12T01:03:44.545Z,48.05
2023-05-12T01:06:54.113Z,48.26
2023-05-12T01:09:22.070Z,48.46
2023-05-12T01:11:49.304Z,48.29
2023-05-12T01:14:17.779Z,48.44
2023-05-12T01:17:09.075Z,48.50
2023-05-12T01:19:49.746Z,48.45
2023-05-12T01:22:18.945Z,48.45
2023-05-12T01:25:00.200Z,48.56
2023-05-12T01:27:30.287Z,48.75
2023-05-12T01:30:00.471Z,48.68
2023-05-12T01:32:30.526Z,48.92
2023-05-12T01:34:57.993Z,49.26
2023-05-12T01:37:29.115Z,48.96
2023-05-12T01:39:57.249Z,49.16
2023-05-12T01:42:24.409Z,49.13
2023-05-12T01:44:51.671Z,49.11
2023-05-12T01:47:20.958Z,49.24
2023-05-12T01:49:54.840Z,49.34
2023-05-12T01:52:22.297Z,49.38
2023-05-12T01:54:51.391Z,49.35
2023-05-12T01:57:19.280Z,49.70
2023-05-12T01:59:46.883Z,49.47
2023-05-12T02:02:13.874Z,49.53
2023-05-12T02:04:41.261Z,49.96
2023-05-12T02:07:09.162Z,49.76
2023-05-12T02:09:36.758Z,49.63
2023-05-12T02:12:04.923Z,49.76
2023-05-12T02:14:32.087Z,49.98
2023-05-12T02:16:59.443Z,49.96
2023-05-12T02:19:26.680Z,49.94
2023-05-12T02:21:54.774Z,50.16
2023-05-12T02:24:22.197Z,50.29
2023-05-12T02:26:49.255Z,50.10
2023-05-12T02:29:17.017Z,50.16
2023-05-12T02:31:44.274Z,50.20
2023-05-12T02:34:16.004Z,50.36
2023-05-12T02:36:43.604Z,50.25
2023-05-12T02:39:12.252Z,50.31
2023-05-12T02:41:39.565Z,50.56
2023-05-12T02:44:07.715Z,50.50
2023-05-12T02:46:35.063Z,50.85
2023-05-12T02:49:02.414Z,50.57
2023-05-12T02:51:29.665Z,50.56
2023-05-12T02:53:57.290Z,50.62
2023-05-12T02:56:24.487Z,50.86
2023-05-12T02:58:51.952Z,50.86
2023-05-12T03:01:19.011Z,50.65
2023-05-12T03:03:46.984Z,50.83
2023-05-12T03:06:14.275Z,50.75
2023-05-12T03:08:41.550Z,50.89
2023-05-12T03:11:08.516Z,50.78
2023-05-12T03:13:36.318Z,50.84
2023-05-12T03:16:03.442Z,50.43
2023-05-12T03:18:31.575Z,50.82
2023-05-12T03:20:59.150Z,50.71
2023-05-12T03:23:26.728Z,50.72
2023-05-12T03:25:55.511Z,50.88
2023-05-12T03:28:26.253Z,50.59
2023-05-12T03:30:54.313Z,50.76
2023-05-12T03:33:21.690Z,50.87
2023-05-12T03:35:49.882Z,50.65
2023-05-12T03:38:18.246Z,50.65
2023-05-12T03:40:52.504Z,50.51
2023-05-12T03:43:21.305Z,50.30
2023-05-12T03:45:49.415Z,50.60
2023-05-12T03:48:17.073Z,50.25
2023-05-12T03:50:43.893Z,49.82
2023-05-12T03:53:11.376Z,49.98
2023-05-12T03:55:38.218Z,49.82
2023-05-12T03:58:05.984Z,49.84
2023-05-12T04:00:33.326Z,49.69
2023-05-12T04:03:00.794Z,49.43
2023-05-12T04:05:28.792Z,49.44
2023-05-12T04:07:56.184Z,49.43
2023-05-12T04:10:23.764Z,49.16
2023-05-12T04:12:52.493Z,48.96
2023-05-12T04:15:20.023Z,48.40
2023-05-12T04:17:47.633Z,47.86
2023-05-12T04:20:14.578Z,47.66
2023-05-12T04:22:41.980Z,47.10
2023-05-12T04:25:10.084Z,46.87
2023-05-12T04:27:38.072Z,46.52
2023-05-12T04:30:06.964Z,45.86
2023-05-12T04:32:37.327Z,45.46
2023-05-12T04:35:05.511Z,45.33
2023-05-12T04:37:32.711Z,44.98
2023-05-12T04:40:00.165Z,45.30
2023-05-12T04:42:27.570Z,44.72
2023-05-12T04:44:55.038Z,44.49
2023-05-12T04:47:22.309Z,43.83
2023-05-12T04:49:49.620Z,43.26
2023-05-12T04:52:16.761Z,42.92
2023-05-12T04:54:44.092Z,42.72
2023-05-12T04:57:11.837Z,42.15
2023-05-12T04:59:41.317Z,41.66
2023-05-12T05:02:09.621Z,41.51
2023-05-12T05:04:36.689Z,40.62
2023-05-12T05:07:04.424Z,40.38
2023-05-12T05:09:33.386Z,40.01
2023-05-12T05:12:02.438Z,39.98
2023-05-12T05:14:29.466Z,40.07
2023-05-12T05:16:57.925Z,40.56
2023-05-12T05:19:37.816Z,41.91
2023-05-12T05:22:12.945Z,42.30
2023-05-12T05:24:39.968Z,41.79
2023-05-12T05:27:07.554Z,42.17
2023-05-12T05:29:34.430Z,42.11
2023-05-12T05:32:02.157Z,42.29
2023-05-12T05:34:29.531Z,42.55
2023-05-12T05:36:57.373Z,42.73
2023-05-12T05:39:24.640Z,42.96
2023-05-12T05:41:52.250Z,42.66
2023-05-12T05:44:19.382Z,42.45
2023-05-12T05:46:46.884Z,42.91
2023-05-12T05:49:14.742Z,42.41
2023-05-12T05:51:42.069Z,42.26
2023-05-12T05:54:09.118Z,42.27
2023-05-12T05:56:37.245Z,42.16
2023-05-12T05:59:05.224Z,42.35
2023-05-12T06:01:32.998Z,42.70
2023-05-12T06:04:01.227Z,42.07
2023-05-12T06:06:29.105Z,42.12
2023-05-12T06:08:56.207Z,42.55
2023-05-12T06:11:23.956Z,42.70
2023-05-12T06:13:51.113Z,42.22
2023-05-12T06:16:18.630Z,42.13
2023-05-12T06:18:46.695Z,41.89
2023-05-12T06:21:14.137Z,41.36
2023-05-12T06:23:41.596Z,41.31
2023-05-12T06:26:09.673Z,41.23
2023-05-12T06:28:36.727Z,40.88
2023-05-12T06:31:08.650Z,41.43
2023-05-12T06:33:36.336Z,41.32
2023-05-12T06:36:03.893Z,41.63
2023-05-12T06:38:32.977Z,41.28
2023-05-12T06:41:00.506Z,40.49
2023-05-12T06:43:27.961Z,40.47
2023-05-12T06:45:57.061Z,40.96
2023-05-12T06:48:24.597Z,40.91
2023-05-12T06:50:52.013Z,40.85
2023-05-12T06:53:19.212Z,40.42
2023-05-12T06:55:47.189Z,40.25
2023-05-12T06:58:14.481Z,40.51
2023-05-12T07:00:41.901Z,40.19
2023-05-12T07:03:10.542Z,41.00
2023-05-12T07:05:37.991Z,40.17
2023-05-12T07:08:05.541Z,40.52
2023-05-12T07:10:33.354Z,39.86
2023-05-12T07:13:00.896Z,39.85
2023-05-12T07:15:29.244Z,39.07
2023-05-12T07:17:57.658Z,38.79
2023-05-12T07:20:25.285Z,38.44
2023-05-12T07:22:54.918Z,38.48
2023-05-12T07:25:22.931Z,38.04
2023-05-12T07:27:50.616Z,37.90
2023-05-12T07:30:18.116Z,37.80
2023-05-12T07:32:45.112Z,37.84
2023-05-12T07:35:13.116Z,37.51
2023-05-12T07:37:41.461Z,37.19
2023-05-12T07:40:09.206Z,36.96
2023-05-12T07:42:36.203Z,37.29
2023-05-12T07:45:06.410Z,36.55
2023-05-12T07:47:33.521Z,36.17
2023-05-12T07:50:01.187Z,36.11
2023-05-12T07:52:28.487Z,35.98
2023-05-12T07:54:58.753Z,35.61
2023-05-12T07:57:25.862Z,35.35
2023-05-12T07:59:53.448Z,36.16
2023-05-12T08:02:20.826Z,35.20
2023-05-12T08:04:48.560Z,34.89
2023-05-12T08:07:16.136Z,34.82
2023-05-12T08:09:43.568Z,34.34
2023-05-12T08:12:10.691Z,33.69
2023-05-12T08:14:38.418Z,33.69
2023-05-12T08:17:05.387Z,33.72
2023-05-12T08:19:32.945Z,33.53
2023-05-12T08:21:59.785Z,32.72
2023-05-12T08:24:27.455Z,33.09
2023-05-12T08:26:54.352Z,31.67
2023-05-12T08:29:22.660Z,31.21
2023-05-12T08:31:49.663Z,30.77
2023-05-12T08:34:18.762Z,30.76
2023-05-12T08:36:45.959Z,31.53
2023-05-12T08:39:13.821Z,31.79
2023-05-12T08:41:52.137Z,31.82
2023-05-12T08:44:20.143Z,32.29
2023-05-12T08:46:51.133Z,32.62
2023-05-12T08:49:21.559Z,31.49
2023-05-12T08:51:57.851Z,32.05
2023-05-12T08:54:27.828Z,31.36
2023-05-12T08:59:26.330Z,31.57
2023-05-12T09:01:54.938Z,31.12
2023-05-12T09:04:22.577Z,31.28
2023-05-12T09:06:51.746Z,31.10
2023-05-12T09:09:21.279Z,30.77
2023-05-12T09:11:51.075Z,31.21
2023-05-12T09:14:22.856Z,31.47
2023-05-12T09:16:56.186Z,30.53
2023-05-12T09:19:24.211Z,30.28
2023-05-12T09:21:51.499Z,30.63
2023-05-12T09:24:18.945Z,30.59
2023-05-12T09:26:51.503Z,30.83
2023-05-12T09:29:30.103Z,31.24
2023-05-12T09:32:01.993Z,30.51
2023-05-12T09:34:38.561Z,30.74
2023-05-12T09:37:08.050Z,30.03
2023-05-12T09:39:36.537Z,30.22
2023-05-12T09:42:03.944Z,30.36
2023-05-12T09:44:32.461Z,29.80
2023-05-12T09:47:07.375Z,29.97
2023-05-12T09:49:35.045Z,30.09
2023-05-12T09:52:05.052Z,29.77
2023-05-12T09:54:34.299Z,29.96
2023-05-12T09:57:05.002Z,29.83
2023-05-12T09:59:36.507Z,30.29
2023-05-12T10:02:06.624Z,30.71
2023-05-12T10:04:42.601Z,30.06
2023-05-12T10:07:13.128Z,29.75
2023-05-12T10:09:42.900Z,29.39
2023-05-12T10:12:10.673Z,29.46
2023-05-12T10:14:38.709Z,29.79
2023-05-12T10:17:07.215Z,29.53
2023-05-12T10:19:35.756Z,29.91
2023-05-12T10:22:06.871Z,29.78
2023-05-12T10:24:34.958Z,29.63
2023-05-12T10:27:05.761Z,29.41
2023-05-12T10:29:34.385Z,29.41
2023-05-12T10:32:01.585Z,28.73
2023-05-12T10:34:37.182Z,28.68
2023-05-12T10:37:09.167Z,28.77
2023-05-12T10:39:46.649Z,28.94
2023-05-12T10:42:17.268Z,28.27
2023-05-12T10:44:54.860Z,28.67
2023-05-12T10:47:29.538Z,28.48
2023-05-12T10:49:59.106Z,28.56
2023-05-12T10:52:28.446Z,28.39
2023-05-12T10:55:04.214Z,29.37
2023-05-12T10:57:33.528Z,28.96
2023-05-12T11:00:03.495Z,29.17
2023-05-12T11:02:34.760Z,29.52
2023-05-12T11:05:13.191Z,28.85
2023-05-12T11:07:50.205Z,29.34
2023-05-12T11:10:20.038Z,29.04
2023-05-12T11:12:47.944Z,29.00
2023-05-12T11:15:17.251Z,29.17
2023-05-12T11:17:46.576Z,28.63
2023-05-12T11:20:24.527Z,28.33
2023-05-12T11:22:53.334Z,28.13
2023-05-12T11:25:21.020Z,28.16
2023-05-12T11:27:53.497Z,28.30
2023-05-12T11:30:21.479Z,28.74
2023-05-12T11:32:48.942Z,28.50
2023-05-12T11:35:19.476Z,28.02
2023-05-12T11:37:47.155Z,28.26
2023-05-12T11:40:22.579Z,28.45
2023-05-12T11:42:56.096Z,27.69
2023-05-12T11:45:29.299Z,27.36
2023-05-12T11:48:11.594Z,27.59
2023-05-12T11:50:41.957Z,27.95
2023-05-12T11:53:15.316Z,27.74
2023-05-12T11:55:53.908Z,28.11
2023-05-12T11:58:31.250Z,28.15
2023-05-12T12:01:10.727Z,28.05
2023-05-12T12:03:49.933Z,27.80
2023-05-12T12:06:19.040Z,27.86
2023-05-12T12:08:57.971Z,27.75
2023-05-12T12:11:30.844Z,28.05
2023-05-12T12:13:58.465Z,28.13
2023-05-12T12:16:28.125Z,28.13
2023-05-12T12:18:56.302Z,27.31
2023-05-12T12:21:25.572Z,27.22
2023-05-12T12:23:52.788Z,27.25
2023-05-12T12:26:21.748Z,27.65
2023-05-12T12:28:49.427Z,27.52
2023-05-12T12:31:17.275Z,26.59
2023-05-12T12:33:44.435Z,26.84
2023-05-12T12:36:11.686Z,27.55
2023-05-12T12:38:40.316Z,27.26
2023-05-12T12:41:07.916Z,27.54
2023-05-12T12:43:35.305Z,27.63
2023-05-12T12:46:03.321Z,27.31
2023-05-12T12:48:32.175Z,27.15
2023-05-12T12:51:01.303Z,27.62
2023-05-12T12:53:28.512Z,27.77
2023-05-12T12:55:57.255Z,27.69
2023-05-12T12:58:24.414Z,28.00
2023-05-12T13:00:53.224Z,27.95
2023-05-12T13:03:20.922Z,28.15
2023-05-12T13:05:48.777Z,27.86
2023-05-12T13:08:17.466Z,28.07
2023-05-12T13:10:45.579Z,28.20
2023-05-12T13:13:13.726Z,28.21
2023-05-12T13:15:42.279Z,28.35
2023-05-12T13:18:09.621Z,28.00
2023-05-12T13:20:37.186Z,28.13
2023-05-12T13:23:05.442Z,27.36
2023-05-12T13:25:32.921Z,27.43
2023-05-12T13:28:01.136Z,27.99
2023-05-12T13:30:28.426Z,27.91
2023-05-12T13:32:55.996Z,27.53
2023-05-12T13:35:24.079Z,27.79
2023-05-12T13:37:51.673Z,27.77
2023-05-12T13:40:19.104Z,27.16
2023-05-12T13:42:46.327Z,27.22
2023-05-12T13:45:14.711Z,26.95
2023-05-12T13:47:42.069Z,27.30
2023-05-12T13:50:09.470Z,27.57
2023-05-12T13:52:37.199Z,27.22
2023-05-12T13:55:05.899Z,27.40
2023-05-12T13:57:34.692Z,27.58
2023-05-12T14:00:03.329Z,27.56
2023-05-12T14:02:31.297Z,26.73
2023-05-12T14:05:00.784Z,27.26
2023-05-12T14:07:29.820Z,27.38
2023-05-12T14:09:57.131Z,27.24
2023-05-12T14:12:25.682Z,27.01
2023-05-12T14:14:52.936Z,26.96
2023-05-12T14:17:20.316Z,27.54
2023-05-12T14:19:47.741Z,27.47
2023-05-12T14:22:25.370Z,27.54
2023-05-12T14:24:53.830Z,27.39
2023-05-12T14:27:20.959Z,27.17
2023-05-12T14:29:48.503Z,26.89
2023-05-12T14:32:16.352Z,26.59
2023-05-12T14:34:44.196Z,26.53
2023-05-12T14:37:11.836Z,26.74
2023-05-12T14:39:39.663Z,26.98
2023-05-12T14:42:07.301Z,27.07
2023-05-12T14:44:34.673Z,26.66
2023-05-12T14:47:02.222Z,27.42
2023-05-12T14:49:29.615Z,27.44
2023-05-12T14:51:56.566Z,27.15
2023-05-12T14:54:25.885Z,27.17
2023-05-12T14:56:53.596Z,26.99
2023-05-12T14:59:20.932Z,26.48
2023-05-12T15:01:48.879Z,25.02
2023-05-12T15:04:17.010Z,23.82
2023-05-12T15:06:44.153Z,23.50
2023-05-12T15:09:11.637Z,23.16
2023-05-12T15:11:39.738Z,23.34
2023-05-12T15:14:07.208Z,24.13
2023-05-12T15:16:35.566Z,24.03
2023-05-12T15:19:03.622Z,24.61
2023-05-12T15:21:31.071Z,24.36
2023-05-12T15:23:58.712Z,23.98
2023-05-12T15:26:33.631Z,23.35
2023-05-12T15:29:02.077Z,23.50
2023-05-12T15:31:29.941Z,24.24
2023-05-12T15:33:57.906Z,24.76
2023-05-12T15:36:25.289Z,24.73
2023-05-12T15:38:52.556Z,24.75
2023-05-12T15:41:19.824Z,24.42
2023-05-12T15:43:47.477Z,23.69
2023-05-12T15:46:14.827Z,23.55
2023-05-12T15:48:42.709Z,24.01
2023-05-12T15:51:09.704Z,24.22
2023-05-12T15:53:36.916Z,24.11
2023-05-12T15:56:05.363Z,23.94
2023-05-12T15:58:33.129Z,23.73
2023-05-12T16:01:00.527Z,24.43
2023-05-12T16:03:28.158Z,24.50
2023-05-12T16:05:55.896Z,24.66
2023-05-12T16:08:24.080Z,25.17
2023-05-12T16:10:51.322Z,25.49
2023-05-12T16:13:18.649Z,25.73
2023-05-12T16:15:46.235Z,25.49
2023-05-12T16:18:13.450Z,25.96
2023-05-12T16:20:41.791Z,26.54
2023-05-12T16:23:09.355Z,26.24
2023-05-12T16:25:37.482Z,25.93
2023-05-12T16:28:05.326Z,25.89
2023-05-12T16:30:32.200Z,25.39
2023-05-12T16:32:59.670Z,26.04
2023-05-12T16:35:26.918Z,25.98
2023-05-12T16:37:54.300Z,25.81
2023-05-12T16:40:21.233Z,26.20
2023-05-12T16:42:48.750Z,26.48
2023-05-12T16:45:15.614Z,26.06
2023-05-12T16:47:43.185Z,25.78
2023-05-12T16:50:10.420Z,25.96
2023-05-12T16:52:37.888Z,26.56
2023-05-12T16:55:05.275Z,26.74
2023-05-12T16:57:33.145Z,26.89
2023-05-12T17:00:02.466Z,26.75
2023-05-12T17:02:29.752Z,27.30
2023-05-12T17:04:57.517Z,27.90
2023-05-12T17:07:24.767Z,27.98
2023-05-12T17:09:52.298Z,28.33
2023-05-12T17:12:19.767Z,28.60
2023-05-12T17:14:59.343Z,28.77
2023-05-12T17:17:31.342Z,29.19
2023-05-12T17:19:58.403Z,29.35
2023-05-12T17:22:25.945Z,29.76
2023-05-12T17:24:53.224Z,29.75
2023-05-12T17:27:20.880Z,29.95
2023-05-12T17:29:48.525Z,30.10
2023-05-12T17:32:16.204Z,30.55
2023-05-12T17:34:43.532Z,30.81
2023-05-12T17:37:11.062Z,31.21
2023-05-12T17:39:40.691Z,31.09
2023-05-12T17:42:09.239Z,31.41
2023-05-12T17:44:36.558Z,31.40
2023-05-12T17:47:04.915Z,31.91
2023-05-12T17:49:32.245Z,31.92
2023-05-12T17:51:59.476Z,31.73
2023-05-12T17:54:26.417Z,32.06
2023-05-12T17:56:54.068Z,31.94
2023-05-12T17:59:21.468Z,32.32
2023-05-12T18:01:48.749Z,32.46
2023-05-12T18:04:18.142Z,32.53
2023-05-12T18:06:50.288Z,32.91
2023-05-12T18:09:18.440Z,33.14
2023-05-12T18:11:49.183Z,33.23
2023-05-12T18:14:16.996Z,33.38
2023-05-12T18:16:44.617Z,33.63
2023-05-12T18:19:11.660Z,33.82
2023-05-12T18:21:39.268Z,34.26
2023-05-12T18:24:07.295Z,34.92
2023-05-12T18:26:34.690Z,34.69
2023-05-12T18:29:01.787Z,34.59
2023-05-12T18:31:29.445Z,34.88
2023-05-12T18:33:56.820Z,35.38
2023-05-12T18:36:24.272Z,35.96
2023-05-12T18:38:52.008Z,36.03
2023-05-12T18:41:19.346Z,36.05
2023-05-12T18:43:46.235Z,36.23
2023-05-12T18:46:13.588Z,36.50
2023-05-12T18:48:40.595Z,36.79
2023-05-12T18:51:08.196Z,36.79
2023-05-12T18:53:35.696Z,36.65
2023-05-12T18:56:02.860Z,36.81
2023-05-12T18:58:29.929Z,36.90
2023-05-12T19:00:57.530Z,36.96
2023-05-12T19:03:24.413Z,37.13
2023-05-12T19:05:51.937Z,37.33
2023-05-12T19:08:20.017Z,37.54
2023-05-12T19:10:48.165Z,38.00
2023-05-12T19:13:15.284Z,38.34
2023-05-12T19:15:42.821Z,38.56
2023-05-12T19:18:10.192Z,38.97
2023-05-12T19:20:37.898Z,39.21
2023-05-12T19:23:05.095Z,39.54
2023-05-12T19:25:32.365Z,39.64
2023-05-12T19:28:00.226Z,39.77
2023-05-12T19:30:29.293Z,39.89
2023-05-12T19:32:56.818Z,40.28
2023-05-12T19:35:24.649Z,40.18
2023-05-12T19:37:51.795Z,40.32
2023-05-12T19:40:19.138Z,40.46
2023-05-12T19:42:46.326Z,40.52
2023-05-12T19:45:13.630Z,40.39
2023-05-12T19:47:41.517Z,40.70
2023-05-12T19:50:09.561Z,41.28
2023-05-12T19:52:37.340Z,41.67
2023-05-12T19:55:06.496Z,41.60
2023-05-12T19:57:33.572Z,41.66
2023-05-12T20:00:00.744Z,42.04
2023-05-12T20:02:30.898Z,41.98
2023-05-12T20:05:01.919Z,42.17
2023-05-12T20:07:29.603Z,42.56
2023-05-12T20:09:57.119Z,42.59
2023-05-12T20:12:24.017Z,42.15
2023-05-12T20:14:51.433Z,42.04
2023-05-12T20:17:18.518Z,42.40
2023-05-12T20:19:45.887Z,42.76
2023-05-12T20:22:12.880Z,42.82
2023-05-12T20:24:40.694Z,43.03
2023-05-12T20:27:07.945Z,43.12
2023-05-12T20:29:35.451Z,43.22
2023-05-12T20:32:02.535Z,43.66
2023-05-12T20:34:29.927Z,43.98
2023-05-12T20:36:57.487Z,44.34
2023-05-12T20:39:25.345Z,44.57
2023-05-12T20:41:52.250Z,44.74
2023-05-12T20:44:20.362Z,44.71
2023-05-12T20:46:48.301Z,44.99
2023-05-12T20:49:15.753Z,45.09
2023-05-12T20:51:42.696Z,45.17
2023-05-12T20:54:10.643Z,45.43
2023-05-12T20:56:37.638Z,45.50
2023-05-12T20:59:05.019Z,45.82
2023-05-12T21:01:32.116Z,45.72
2023-05-12T21:03:59.632Z,45.93
2023-05-12T21:06:27.355Z,46.07
2023-05-12T21:08:55.233Z,46.54
2023-05-12T21:11:22.534Z,46.74
2023-05-12T21:13:49.884Z,46.90
2023-05-12T21:16:16.979Z,47.06
2023-05-12T21:18:45.087Z,47.42
2023-05-12T21:21:12.125Z,47.50
2023-05-12T21:23:39.557Z,47.79
2023-05-12T21:26:09.278Z,48.25
2023-05-12T21:28:37.696Z,48.09
2023-05-12T21:31:04.599Z,48.36
2023-05-12T21:33:33.225Z,48.65
2023-05-12T21:36:00.208Z,48.77
2023-05-12T21:38:27.869Z,49.28
2023-05-12T21:40:56.389Z,49.48
2023-05-12T21:43:24.241Z,49.57
2023-05-12T21:45:51.855Z,49.36
2023-05-12T21:48:19.378Z,49.07
2023-05-12T21:50:58.369Z,48.80
2023-05-12T21:53:25.885Z,49.01
2023-05-12T21:55:52.822Z,49.17
2023-05-12T21:58:20.385Z,49.36
2023-05-12T22:00:47.399Z,48.38
2023-05-12T22:03:15.538Z,47.78
2023-05-12T22:05:44.799Z,47.32
2023-05-12T22:08:12.024Z,47.34
2023-05-12T22:10:39.105Z,48.18
2023-05-12T22:13:06.639Z,48.41
2023-05-12T22:15:34.140Z,49.13
2023-05-12T22:18:02.059Z,49.28
2023-05-12T22:20:28.979Z,49.58
2023-05-12T22:22:56.415Z,49.80
2023-05-12T22:25:23.411Z,49.96
2023-05-12T22:27:51.111Z,49.94
2023-05-12T22:30:19.172Z,50.02
2023-05-12T22:32:46.803Z,49.96
2023-05-12T22:35:14.250Z,49.84
2023-05-12T22:37:41.466Z,50.10
2023-05-12T22:40:09.094Z,50.23
2023-05-12T22:42:36.660Z,50.34
2023-05-12T22:45:04.824Z,50.38
2023-05-12T22:47:32.600Z,50.72
2023-05-12T22:50:00.668Z,50.90
2023-05-12T22:52:28.200Z,51.38
2023-05-12T22:54:55.587Z,51.23
2023-05-12T22:57:23.283Z,51.34
2023-05-12T22:59:50.274Z,51.28
2023-05-12T23:02:17.673Z,51.28
2023-05-12T23:04:44.707Z,51.10
2023-05-12T23:07:12.250Z,51.00
2023-05-12T23:09:39.687Z,51.02
2023-05-12T23:12:07.251Z,51.32
2023-05-12T23:14:34.247Z,51.85
2023-05-12T23:17:01.422Z,51.52
2023-05-12T23:19:28.657Z,52.11
2023-05-12T23:21:55.918Z,52.38
2023-05-12T23:24:23.065Z,52.56
2023-05-12T23:26:50.923Z,52.90
2023-05-12T23:29:18.202Z,53.64
2023-05-12T23:31:45.720Z,52.99
2023-05-12T23:34:12.583Z,51.69
2023-05-12T23:36:39.801Z,50.38
2023-05-12T23:39:07.028Z,50.25
2023-05-12T23:41:36.330Z,50.16
2023-05-12T23:44:03.642Z,50.23
2023-05-12T23:46:31.295Z,50.19
2023-05-12T23:48:58.406Z,50.26
2023-05-12T23:51:25.985Z,50.30
2023-05-12T23:53:52.936Z,50.33
2023-05-12T23:56:21.687Z,50.53
2023-05-12T23:58:49.241Z,50.68
